Terminal Aerodrome Forecast
Issued by NWS Cleveland, OH

Home | Current Version | Previous Version | Graphics & Text | Print | Product List | Glossary On
Versions: 1 2 3 4 5 6 7 8 9 10 11 12 13 14 15 16 17 18 19 20 21 22 23 24 25 26 27 28
000
FTUS41 KCLE 220500
TAFCLE
TAF
KCLE 220529Z 2206/2312 18006KT P6SM SKC
     FM221100 19008KT P6SM BKN030 OVC080
     FM221300 20012KT 5SM -RA BR BKN020 OVC040 WS020/24045KT
     FM221500 20015G21KT 4SM -RA BR SCT008 OVC015 WS020/22045KT
     FM221700 20015G22KT 6SM -RA BR OVC015
     FM230100 19007KT P6SM OVC040=

USA.gov is the U.S. government's official web portal to all federal, state and local government web resources and services.